createdAt,value
2022-11-05T00:02:35.536Z,11.32
2022-11-05T00:05:55.616Z,11.30
2022-11-05T00:09:15.667Z,11.17
2022-11-05T00:12:35.754Z,11.23
2022-11-05T00:15:56.431Z,11.21
2022-11-05T00:19:07.016Z,11.14
2022-11-05T00:22:26.981Z,11.12
2022-11-05T00:25:29.959Z,11.08
2022-11-05T00:28:32.485Z,11.16
2022-11-05T00:31:34.025Z,11.07
2022-11-05T00:34:35.588Z,11.14
2022-11-05T00:37:37.382Z,11.13
2022-11-05T00:40:39.193Z,11.11
2022-11-05T00:43:59.464Z,11.11
2022-11-05T00:47:19.434Z,10.84
2022-11-05T00:50:22.153Z,10.82
2022-11-05T00:53:23.714Z,10.74
2022-11-05T00:56:25.293Z,10.65
2022-11-05T00:59:26.839Z,10.66
2022-11-05T01:02:28.462Z,10.70
2022-11-05T01:05:31.837Z,10.60
2022-11-05T01:08:33.841Z,10.62
2022-11-05T01:11:37.353Z,10.59
2022-11-05T01:14:39.029Z,10.61
2022-11-05T01:17:40.612Z,10.59
2022-11-05T01:20:42.686Z,10.62
2022-11-05T01:23:44.230Z,10.64
2022-11-05T01:26:45.795Z,10.58
2022-11-05T01:29:47.333Z,10.54
2022-11-05T01:32:49.090Z,10.50
2022-11-05T01:35:51.848Z,10.48
2022-11-05T01:38:53.840Z,10.56
2022-11-05T01:41:55.534Z,10.53
2022-11-05T01:45:17.761Z,10.53
2022-11-05T01:48:32.881Z,10.56
2022-11-05T01:51:34.820Z,10.54
2022-11-05T01:54:36.542Z,10.54
2022-11-05T01:57:38.223Z,10.61
2022-11-05T02:00:42.459Z,10.50
2022-11-05T02:03:45.167Z,10.60
2022-11-05T02:06:46.866Z,10.50
2022-11-05T02:09:55.750Z,10.59
2022-11-05T02:12:57.549Z,10.54
2022-11-05T02:16:18.666Z,10.47
2022-11-05T02:19:57.809Z,10.54
2022-11-05T02:23:08.665Z,10.58
2022-11-05T02:26:34.251Z,10.49
2022-11-05T02:30:09.938Z,10.57
2022-11-05T02:33:12.099Z,10.55
2022-11-05T02:36:19.991Z,10.52
2022-11-05T02:39:39.083Z,10.56
2022-11-05T02:42:59.406Z,10.48
2022-11-05T02:46:22.771Z,10.65
2022-11-05T02:49:49.053Z,10.56
2022-11-05T02:53:02.202Z,10.56
2022-11-05T02:56:10.098Z,10.48
2022-11-05T02:59:11.709Z,10.42
2022-11-05T03:02:13.403Z,10.47
2022-11-05T03:05:15.269Z,10.39
2022-11-05T03:08:33.792Z,10.49
2022-11-05T03:12:05.640Z,10.40
2022-11-05T03:15:22.307Z,10.38
2022-11-05T03:18:46.334Z,10.38
2022-11-05T03:21:53.144Z,10.39
2022-11-05T03:25:00.539Z,10.44
2022-11-05T03:28:06.678Z,10.29
2022-11-05T03:31:12.343Z,10.21
2022-11-05T03:34:17.490Z,10.21
2022-11-05T03:37:22.452Z,10.12
2022-11-05T03:40:26.231Z,10.14
2022-11-05T03:43:32.905Z,10.14
2022-11-05T03:46:41.115Z,10.13
2022-11-05T03:50:05.513Z,10.01
2022-11-05T03:53:15.376Z,9.99
2022-11-05T03:56:40.120Z,9.94
2022-11-05T03:59:45.558Z,10.04
2022-11-05T04:02:47.281Z,9.99
2022-11-05T04:06:09.421Z,10.00
2022-11-05T04:09:29.847Z,9.98
2022-11-05T04:12:49.903Z,9.84
2022-11-05T04:16:11.128Z,9.81
2022-11-05T04:19:12.694Z,9.71
2022-11-05T04:22:32.846Z,9.62
2022-11-05T04:25:34.538Z,9.61
2022-11-05T04:28:54.566Z,9.62
2022-11-05T04:31:56.184Z,9.56
2022-11-05T04:34:57.765Z,9.42
2022-11-05T04:37:59.366Z,9.28
2022-11-05T04:41:13.685Z,9.21
2022-11-05T04:44:16.512Z,9.16
2022-11-05T04:47:18.050Z,9.15
2022-11-05T04:50:20.155Z,9.04
2022-11-05T04:53:21.699Z,8.93
2022-11-05T04:56:25.237Z,8.93
2022-11-05T04:59:26.834Z,8.89
2022-11-05T05:02:28.555Z,8.81
2022-11-05T05:05:30.679Z,8.87
2022-11-05T05:08:32.507Z,8.80
2022-11-05T05:11:34.063Z,8.74
2022-11-05T05:14:35.750Z,8.74
2022-11-05T05:17:37.344Z,8.66
2022-11-05T05:20:57.347Z,8.71
2022-11-05T05:23:58.936Z,8.81
2022-11-05T05:27:01.328Z,8.70
2022-11-05T05:30:03.506Z,8.64
2022-11-05T05:33:05.132Z,8.61
2022-11-05T05:36:11.356Z,8.69
2022-11-05T05:39:13.257Z,8.78
2022-11-05T05:42:15.463Z,8.77
2022-11-05T05:45:17.130Z,8.65
2022-11-05T05:48:18.688Z,8.74
2022-11-05T05:51:20.231Z,8.73
2022-11-05T05:54:26.296Z,8.68
2022-11-05T05:57:30.767Z,8.73
2022-11-05T06:00:32.337Z,8.74
2022-11-05T06:03:34.517Z,8.66
2022-11-05T06:06:36.126Z,8.61
2022-11-05T06:09:37.675Z,8.69
2022-11-05T06:12:39.299Z,8.71
2022-11-05T06:15:40.879Z,8.70
2022-11-05T06:18:42.486Z,8.82
2022-11-05T06:21:44.134Z,8.78
2022-11-05T06:24:45.712Z,8.72
2022-11-05T06:27:47.716Z,8.82
2022-11-05T06:30:52.320Z,8.78
2022-11-05T06:33:53.913Z,8.77
2022-11-05T06:36:55.483Z,8.73
2022-11-05T06:39:57.236Z,8.80
2022-11-05T06:42:58.787Z,8.80
2022-11-05T06:46:02.207Z,8.76
2022-11-05T06:49:03.756Z,8.64
2022-11-05T06:52:05.440Z,8.69
2022-11-05T06:55:07.308Z,8.67
2022-11-05T06:58:08.861Z,8.64
2022-11-05T07:01:10.832Z,8.62
2022-11-05T07:04:12.626Z,8.62
2022-11-05T07:07:14.335Z,8.60
2022-11-05T07:10:18.769Z,8.70
2022-11-05T07:13:20.385Z,8.63
2022-11-05T07:16:21.991Z,8.56
2022-11-05T07:19:23.555Z,8.53
2022-11-05T07:22:25.104Z,8.53
2022-11-05T07:25:26.648Z,8.42
2022-11-05T07:28:28.265Z,8.44
2022-11-05T07:31:29.922Z,8.45
2022-11-05T07:34:31.712Z,8.48
2022-11-05T07:37:33.342Z,8.49
2022-11-05T07:40:34.916Z,8.55
2022-11-05T07:43:36.465Z,8.55
2022-11-05T07:46:38.037Z,8.41
2022-11-05T07:49:39.598Z,8.46
2022-11-05T07:52:41.475Z,8.40
2022-11-05T07:55:44.031Z,8.51
2022-11-05T07:58:45.605Z,8.48
2022-11-05T08:01:47.382Z,8.42
2022-11-05T08:04:49.075Z,8.32
2022-11-05T08:07:50.627Z,8.37
2022-11-05T08:10:52.197Z,8.56
2022-11-05T08:13:53.759Z,8.45
2022-11-05T08:16:58.091Z,8.44
2022-11-05T08:19:59.655Z,8.46
2022-11-05T08:23:01.653Z,8.48
2022-11-05T08:26:04.089Z,8.49
2022-11-05T08:29:05.668Z,8.48
2022-11-05T08:32:07.316Z,8.49
2022-11-05T08:35:09.083Z,8.52
2022-11-05T08:38:15.542Z,8.51
2022-11-05T08:41:17.137Z,8.48
2022-11-05T08:44:18.685Z,8.53
2022-11-05T08:47:20.226Z,8.49
2022-11-05T08:50:21.769Z,8.56
2022-11-05T08:53:23.398Z,8.61
2022-11-05T08:56:25.107Z,8.63
2022-11-05T08:59:29.229Z,8.70
2022-11-05T09:02:30.885Z,8.73
2022-11-05T09:05:37.870Z,8.70
2022-11-05T09:08:39.470Z,8.74
2022-11-05T09:12:09.898Z,8.81
2022-11-05T09:15:02.586Z,8.77
2022-11-05T09:18:08.173Z,8.78
2022-11-05T09:21:09.727Z,8.78
2022-11-05T09:24:11.621Z,8.96
2022-11-05T09:27:14.674Z,8.90
2022-11-05T09:30:16.303Z,8.95
2022-11-05T09:33:20.321Z,8.92
2022-11-05T09:36:21.895Z,8.89
2022-11-05T09:39:23.751Z,8.98
2022-11-05T09:42:31.318Z,9.12
2022-11-05T09:45:35.458Z,9.02
2022-11-05T09:48:39.767Z,9.17
2022-11-05T09:51:41.480Z,9.10
2022-11-05T09:54:43.188Z,9.15
2022-11-05T09:57:54.820Z,9.28
2022-11-05T10:00:58.453Z,9.29
2022-11-05T10:04:06.255Z,9.18
2022-11-05T10:07:14.535Z,9.27
2022-11-05T10:10:25.310Z,9.16
2022-11-05T10:13:33.606Z,9.16
2022-11-05T10:16:42.741Z,8.99
2022-11-05T10:19:49.726Z,9.12
2022-11-05T10:22:57.035Z,9.23
2022-11-05T10:26:14.159Z,9.30
2022-11-05T10:29:25.175Z,9.35
2022-11-05T10:32:34.079Z,9.50
2022-11-05T10:35:50.701Z,9.60
2022-11-05T10:38:54.216Z,9.81
2022-11-05T10:42:22.058Z,9.78
2022-11-05T10:45:57.586Z,9.94
2022-11-05T10:49:26.278Z,9.93
2022-11-05T10:53:02.663Z,10.20
2022-11-05T10:56:24.600Z,10.37
2022-11-05T10:59:28.776Z,10.57
2022-11-05T11:02:30.763Z,10.56
2022-11-05T11:05:40.079Z,10.76
2022-11-05T11:08:45.375Z,10.74
2022-11-05T11:11:56.154Z,10.65
2022-11-05T11:15:05.266Z,10.76
2022-11-05T11:18:34.687Z,10.86
2022-11-05T11:21:41.736Z,10.96
2022-11-05T11:24:48.128Z,11.04
2022-11-05T11:27:49.794Z,11.12
2022-11-05T11:31:02.080Z,11.20
2022-11-05T11:34:06.988Z,11.24
2022-11-05T11:37:19.413Z,11.03
2022-11-05T11:40:31.577Z,10.86
2022-11-05T11:43:36.533Z,10.80
2022-11-05T11:46:38.652Z,10.81
2022-11-05T11:49:45.923Z,10.85
2022-11-05T11:52:47.511Z,10.82
2022-11-05T11:56:12.409Z,10.71
2022-11-05T11:59:46.752Z,10.78
2022-11-05T12:03:08.629Z,10.73
2022-11-05T12:06:35.484Z,10.86
2022-11-05T12:09:58.897Z,10.90
2022-11-05T12:13:18.722Z,10.81
2022-11-05T12:16:29.991Z,10.81
2022-11-05T12:19:44.219Z,10.82
2022-11-05T12:22:48.526Z,10.80
2022-11-05T12:26:18.684Z,10.91
2022-11-05T12:29:35.950Z,11.09
2022-11-05T12:32:49.722Z,11.05
2022-11-05T12:36:06.828Z,11.04
2022-11-05T12:39:42.319Z,11.18
2022-11-05T12:43:25.504Z,11.17
2022-11-05T12:46:33.808Z,11.15
2022-11-05T12:50:03.564Z,11.43
2022-11-05T12:53:27.108Z,11.57
2022-11-05T12:56:45.885Z,11.43
2022-11-05T13:00:16.851Z,11.39
2022-11-05T13:03:52.918Z,11.33
2022-11-05T13:06:55.878Z,11.23
2022-11-05T13:10:18.501Z,11.23
2022-11-05T13:13:38.792Z,11.23
2022-11-05T13:16:48.712Z,11.19
2022-11-05T13:20:01.586Z,11.06
2022-11-05T13:23:17.502Z,11.08
2022-11-05T13:26:35.632Z,11.27
2022-11-05T13:30:02.165Z,11.24
2022-11-05T13:33:12.680Z,11.37
2022-11-05T13:36:40.403Z,11.46
2022-11-05T13:39:50.697Z,11.44
2022-11-05T13:43:10.819Z,11.45
2022-11-05T13:46:28.262Z,11.46
2022-11-05T13:49:38.967Z,11.45
2022-11-05T13:52:54.778Z,11.43
2022-11-05T13:56:18.358Z,11.55
2022-11-05T13:59:47.590Z,11.37
2022-11-05T14:02:52.374Z,11.48
2022-11-05T14:06:02.761Z,11.48
2022-11-05T14:09:10.209Z,11.38
2022-11-05T14:12:29.067Z,11.40
2022-11-05T14:15:32.097Z,11.47
2022-11-05T14:18:41.313Z,11.38
2022-11-05T14:21:58.802Z,11.39
2022-11-05T14:25:21.589Z,11.32
2022-11-05T14:28:35.761Z,11.32
2022-11-05T14:32:12.566Z,11.35
2022-11-05T14:35:17.488Z,11.53
2022-11-05T14:38:28.224Z,11.51
2022-11-05T14:41:30.390Z,11.38
2022-11-05T14:44:35.044Z,11.24
2022-11-05T14:47:42.209Z,11.31
2022-11-05T14:50:44.454Z,11.27
2022-11-05T14:53:47.620Z,11.20
2022-11-05T14:56:58.207Z,11.16
2022-11-05T15:00:01.345Z,11.12
2022-11-05T15:03:32.154Z,11.12
2022-11-05T15:06:36.385Z,10.99
2022-11-05T15:09:53.449Z,11.03
2022-11-05T15:13:03.647Z,11.00
2022-11-05T15:16:07.474Z,11.03
2022-11-05T15:19:20.312Z,10.98
2022-11-05T15:22:29.046Z,10.91
2022-11-05T15:25:41.666Z,10.93
2022-11-05T15:28:49.497Z,10.89
2022-11-05T15:31:53.161Z,10.89
2022-11-05T15:34:56.015Z,10.84
2022-11-05T15:38:02.219Z,10.89
2022-11-05T15:41:14.038Z,10.93
2022-11-05T15:44:31.453Z,10.90
2022-11-05T15:47:37.118Z,10.89
2022-11-05T15:50:39.162Z,10.81
2022-11-05T15:54:01.746Z,10.74
2022-11-05T15:57:05.780Z,10.69
2022-11-05T16:00:16.655Z,10.81
2022-11-05T16:03:44.619Z,10.69
2022-11-05T16:06:49.758Z,10.71
2022-11-05T16:10:02.136Z,10.70
2022-11-05T16:13:39.977Z,10.71
2022-11-05T16:16:43.658Z,10.61
2022-11-05T16:19:46.753Z,10.54
2022-11-05T16:22:52.749Z,10.48
2022-11-05T16:25:54.618Z,10.42
2022-11-05T16:29:17.995Z,10.44
2022-11-05T16:32:31.173Z,10.38
2022-11-05T16:35:39.023Z,10.34
2022-11-05T16:38:40.901Z,10.23
2022-11-05T16:41:43.193Z,10.04
2022-11-05T16:44:45.029Z,10.00
2022-11-05T16:47:47.845Z,9.91
2022-11-05T16:50:50.536Z,9.94
2022-11-05T16:53:52.260Z,9.87
2022-11-05T16:56:54.077Z,9.88
2022-11-05T16:59:59.568Z,9.82
2022-11-05T17:03:01.856Z,9.83
2022-11-05T17:06:03.831Z,9.92
2022-11-05T17:09:05.807Z,9.89
2022-11-05T17:12:07.955Z,9.85
2022-11-05T17:15:35.779Z,9.85
2022-11-05T17:18:38.696Z,9.87
2022-11-05T17:21:40.857Z,9.79
2022-11-05T17:24:43.001Z,9.70
2022-11-05T17:27:45.424Z,9.70
2022-11-05T17:30:55.072Z,9.66
2022-11-05T17:33:59.745Z,9.70
2022-11-05T17:37:04.285Z,9.69
2022-11-05T17:40:12.907Z,9.72
2022-11-05T17:43:16.036Z,9.68
2022-11-05T17:46:20.606Z,9.58
2022-11-05T17:49:23.300Z,9.56
2022-11-05T17:52:25.451Z,9.48
2022-11-05T17:55:27.748Z,9.35
2022-11-05T17:58:29.951Z,9.38
2022-11-05T18:01:35.980Z,9.30
2022-11-05T18:04:38.773Z,9.23
2022-11-05T18:07:40.876Z,9.22
2022-11-05T18:10:43.184Z,9.40
2022-11-05T18:13:45.451Z,9.31
2022-11-05T18:16:47.833Z,9.32
2022-11-05T18:19:50.174Z,9.50
2022-11-05T18:22:53.420Z,9.71
2022-11-05T18:25:56.258Z,9.79
2022-11-05T18:29:01.016Z,9.83
2022-11-05T18:32:03.247Z,9.69
2022-11-05T18:35:05.926Z,9.73
2022-11-05T18:38:11.271Z,9.87
2022-11-05T18:41:13.738Z,9.79
2022-11-05T18:44:17.194Z,10.03
2022-11-05T18:47:19.613Z,10.17
2022-11-05T18:50:21.824Z,10.10
2022-11-05T18:53:24.735Z,9.99
2022-11-05T18:56:27.081Z,10.05
2022-11-05T18:59:39.004Z,9.88
2022-11-05T19:02:42.043Z,9.70
2022-11-05T19:05:44.125Z,9.77
2022-11-05T19:08:47.160Z,9.68
2022-11-05T19:11:49.201Z,9.90
2022-11-05T19:14:51.367Z,10.11
2022-11-05T19:17:54.249Z,10.09
2022-11-05T19:20:56.257Z,10.12
2022-11-05T19:24:01.393Z,10.29
2022-11-05T19:27:03.774Z,10.17
2022-11-05T19:30:06.986Z,10.18
2022-11-05T19:33:09.677Z,10.22
2022-11-05T19:36:13.927Z,10.37
2022-11-05T19:39:16.103Z,10.26
2022-11-05T19:42:18.852Z,10.24
2022-11-05T19:45:43.561Z,10.13
2022-11-05T19:48:44.388Z,10.04
2022-11-05T19:51:47.405Z,10.06
2022-11-05T19:54:50.133Z,10.18
2022-11-05T19:57:52.466Z,10.11
2022-11-05T20:00:55.516Z,10.09
2022-11-05T20:04:00.409Z,10.20
2022-11-05T20:07:02.295Z,10.15
2022-11-05T20:10:06.087Z,10.16
2022-11-05T20:13:08.215Z,10.11
2022-11-05T20:16:40.716Z,10.01
2022-11-05T20:19:42.891Z,10.14
2022-11-05T20:22:45.855Z,10.16
2022-11-05T20:25:48.081Z,10.25
2022-11-05T20:28:50.363Z,10.25
2022-11-05T20:31:53.054Z,10.33
2022-11-05T20:34:55.206Z,10.19
2022-11-05T20:37:57.457Z,10.13
2022-11-05T20:40:59.744Z,10.20
2022-11-05T20:44:02.208Z,10.15
2022-11-05T20:47:04.927Z,10.06
2022-11-05T20:50:07.677Z,10.30
2022-11-05T20:53:15.935Z,10.16
2022-11-05T20:56:20.704Z,10.22
2022-11-05T20:59:22.839Z,10.20
2022-11-05T21:02:25.812Z,10.28
2022-11-05T21:05:32.701Z,10.37
2022-11-05T21:08:37.794Z,10.41
2022-11-05T21:11:58.611Z,10.47
2022-11-05T21:15:00.762Z,10.43
2022-11-05T21:18:03.097Z,10.36
2022-11-05T21:21:11.277Z,10.53
2022-11-05T21:24:14.423Z,10.46
2022-11-05T21:27:16.530Z,10.56
2022-11-05T21:30:18.553Z,10.39
2022-11-05T21:33:20.928Z,10.50
2022-11-05T21:36:23.070Z,10.59
2022-11-05T21:39:25.161Z,10.58
2022-11-05T21:42:29.258Z,10.54
2022-11-05T21:45:31.107Z,10.57
2022-11-05T21:48:33.000Z,10.48
2022-11-05T21:51:53.187Z,10.47
2022-11-05T21:55:13.547Z,10.42
2022-11-05T21:58:35.108Z,10.33
2022-11-05T22:01:36.791Z,10.49
2022-11-05T22:04:46.324Z,10.45
2022-11-05T22:07:47.967Z,10.49
2022-11-05T22:10:49.774Z,10.51
2022-11-05T22:13:52.417Z,10.53
2022-11-05T22:16:54.776Z,10.60
2022-11-05T22:19:56.390Z,10.65
2022-11-05T22:22:58.065Z,10.60
2022-11-05T22:26:01.487Z,10.45
2022-11-05T22:29:03.498Z,10.52
2022-11-05T22:32:05.808Z,10.38
2022-11-05T22:35:07.910Z,10.51
2022-11-05T22:38:09.701Z,10.47
2022-11-05T22:41:20.326Z,10.27
2022-11-05T22:44:22.002Z,10.31
2022-11-05T22:47:23.572Z,10.18
2022-11-05T22:50:25.136Z,9.93
2022-11-05T22:53:26.692Z,10.13
2022-11-05T22:56:35.324Z,9.94
2022-11-05T22:59:36.940Z,9.72
2022-11-05T23:02:38.745Z,9.79
2022-11-05T23:05:40.671Z,9.89
2022-11-05T23:09:00.622Z,9.72
2022-11-05T23:12:04.860Z,9.62
2022-11-05T23:15:07.904Z,9.59
2022-11-05T23:18:28.928Z,9.45
2022-11-05T23:21:49.221Z,9.42
2022-11-05T23:24:50.936Z,9.29
2022-11-05T23:27:53.866Z,9.36
2022-11-05T23:31:14.328Z,9.58
2022-11-05T23:34:15.914Z,9.66
2022-11-05T23:37:36.010Z,9.51
2022-11-05T23:40:58.144Z,9.60
2022-11-05T23:44:18.385Z,9.37
2022-11-05T23:47:38.478Z,9.31
2022-11-05T23:50:41.052Z,9.33
2022-11-05T23:53:42.647Z,9.17
2022-11-05T23:56:44.307Z,9.17
2022-11-05T23:59:45.879Z,9.12
